This is the latest recevied weather packets stored in our database for station/object HS5FXK-3. If no packets are shown the sender has not sent any weather packets the latest 10 day(s).
| Time | Temp. | Humidity | Pressure | Rain* | Wind** | Luminosity | Snow |
|---|---|---|---|---|---|---|---|
| 1777371063 | 37.22° C | 33% | 972 hPa | - | - | 0 W/m² | - |
| 1777370150 | 37.22° C | 32% | 972 hPa | - | - | 0 W/m² | - |
| 1777369237 | 37.78° C | 31% | 973 hPa | - | - | 0 W/m² | - |
| 1777368326 | 38.89° C | 32% | 973 hPa | - | - | 0 W/m² | - |
| 1777367413 | 39.44° C | 31% | 973 hPa | - | - | 0 W/m² | - |
| 1777366501 | 39.44° C | 31% | 973 hPa | - | - | 0 W/m² | - |
| 1777365588 | 40° C | 30% | 974 hPa | - | - | 0 W/m² | - |
| 1777364676 | 40.56° C | 30% | 974 hPa | - | - | 0 W/m² | - |
| 1777364227 | 41.11° C | 30% | 974 hPa | - | - | 0 W/m² | - |
| 1777363957 | 40° C | 31% | 974 hPa | - | - | 0 W/m² | - |
| 1777363325 | 38.89° C | 32% | 974 hPa | - | - | 0 W/m² | - |
| 1777361289 | 38.89° C | 33% | 975 hPa | - | - | 0 W/m² | - |
| 1777360377 | 40° C | 32% | 975 hPa | - | - | 0 W/m² | - |
| 1777359465 | 39.44° C | 34% | 975 hPa | - | - | 0 W/m² | - |
| 1777358808 | 38.89° C | 35% | 975 hPa | - | - | 0 W/m² | - |
| 1777358495 | 38.89° C | 35% | 975 hPa | - | - | 0 W/m² | - |
| 1777357521 | 39.44° C | 34% | 976 hPa | - | - | 0 W/m² | - |
| 1777356609 | 40° C | 35% | 976 hPa | - | - | 0 W/m² | - |
| 1777356449 | 40° C | 33% | 976 hPa | - | - | 0 W/m² | - |
| 1777355537 | 39.44° C | 33% | 976 hPa | - | - | 0 W/m² | - |
| 1777354626 | 38.33° C | 35% | 976 hPa | - | - | 0 W/m² | - |
| 1777353712 | 38.89° C | 34% | 977 hPa | - | - | 0 W/m² | - |
| 1777353514 | 38.89° C | 34% | 977 hPa | - | - | 0 W/m² | - |
| 1777352600 | 40° C | 31% | 977 hPa | - | - | 0 W/m² | - |
| 1777351687 | 39.44° C | 32% | 977 hPa | - | - | 0 W/m² | - |
* Rain since midnight (hover to see other rain measurements)
** Current wind speed in m/s (hover to see current wind gust speed)